DENIK EDDN-EDDN

Flight info

Callsign DENIK
Flight time 0h 7m
Altitude
Route
Aircraft C172

Departure

Time 2026-04-29 15:55
Airport Nuremberg Airport (EDDN)

Arrival

Time 2026-04-29 16:03
Airport Nuremberg Airport (EDDN)
Time Latitude Longitude Altitude Speed Heading
2026-04-29 15:45 49.49482 11.06971 1020 ft 0 kts 106°
2026-04-29 15:47 49.49501 11.06958 1021 ft 6 kts 304°
2026-04-29 15:47 49.49546 11.06951 1020 ft 8 kts 58°
2026-04-29 15:47 49.49515 11.07066 1020 ft 15 kts 99°
2026-04-29 15:47 49.49514 11.07191 1020 ft 9 kts 17°
2026-04-29 15:48 49.49621 11.07218 1021 ft 7 kts
2026-04-29 15:48 49.49624 11.07218 1021 ft 0 kts
2026-04-29 15:48 49.49695 11.07232 1021 ft 16 kts 351°
2026-04-29 15:49 49.49775 11.07080 1017 ft 22 kts 324°
2026-04-29 15:49 49.49833 11.07042 1016 ft 0 kts 332°
2026-04-29 15:53 49.49846 11.07033 1016 ft 16 kts 339°
2026-04-29 15:53 49.49938 11.07052 1017 ft 7 kts 59°
2026-04-29 15:53 49.49941 11.07084 1018 ft 0 kts 99°
2026-04-29 15:54 49.49932 11.07183 1020 ft 22 kts 96°
2026-04-29 15:54 49.49885 11.07665 1054 ft 62 kts 97°
2026-04-29 15:55 49.49815 11.08367 1271 ft 65 kts 96°
2026-04-29 15:55 49.49965 11.08940 1479 ft 73 kts 20°
2026-04-29 15:55 49.50474 11.09131 1686 ft 80 kts 25°
2026-04-29 15:55 49.51071 11.09010 1810 ft 112 kts 311°
2026-04-29 15:56 49.51244 11.07892 1875 ft 103 kts 285°
2026-04-29 15:56 49.51302 11.06775 1805 ft 106 kts 282°
2026-04-29 15:56 49.51351 11.05666 1686 ft 104 kts 281°
2026-04-29 15:56 49.51455 11.04724 1691 ft 80 kts 307°
2026-04-29 15:57 49.51783 11.04144 1810 ft 73 kts 340°
2026-04-29 15:57 49.52260 11.03852 1962 ft 70 kts 14°
2026-04-29 15:57 49.52738 11.04047 2084 ft 79 kts 34°
2026-04-29 15:57 49.53140 11.04647 2280 ft 82 kts 58°
2026-04-29 15:58 49.53395 11.05437 2386 ft 82 kts 70°
2026-04-29 15:58 49.53368 11.06383 2317 ft 103 kts 131°
2026-04-29 15:58 49.52566 11.06102 2237 ft 132 kts 205°
2026-04-29 15:58 49.51944 11.05139 2175 ft 130 kts 250°
2026-04-29 15:59 49.51361 11.04312 1845 ft 108 kts 175°
2026-04-29 15:59 49.50652 11.04378 1583 ft 98 kts 169°
2026-04-29 15:59 49.50196 11.04881 1391 ft 72 kts 105°
2026-04-29 15:59 49.50082 11.05610 1149 ft 70 kts 94°
2026-04-29 16:00 49.50014 11.06307 1026 ft 57 kts 95°
2026-04-29 16:00 49.49972 11.06824 1014 ft 60 kts 101°
2026-04-29 16:00 49.49891 11.07563 1100 ft 79 kts 95°
2026-04-29 16:00 49.49811 11.08355 1352 ft 75 kts 97°
2026-04-29 16:01 49.50058 11.08928 1569 ft 79 kts 23°
2026-04-29 16:01 49.50562 11.09153 1798 ft 85 kts 24°
2026-04-29 16:01 49.51129 11.08582 1740 ft 126 kts 291°
2026-04-29 16:01 49.51270 11.07372 1813 ft 114 kts 286°
2026-04-29 16:02 49.51360 11.06141 1750 ft 114 kts 284°
2026-04-29 16:02 49.51112 11.05125 1748 ft 113 kts 205°
2026-04-29 16:02 49.50379 11.05144 1365 ft 101 kts 141°
2026-04-29 16:02 49.50064 11.05879 1175 ft 73 kts 94°
2026-04-29 16:03 49.49995 11.06523 1020 ft 47 kts 94°
2026-04-29 16:03 49.49963 11.06984 1015 ft 59 kts 101°
2026-04-29 16:03 49.49873 11.07715 1117 ft 76 kts 94°
2026-04-29 16:03 49.49836 11.08462 1378 ft 71 kts 64°
2026-04-29 16:04 49.50286 11.08795 1630 ft 77 kts 19°
2026-04-29 16:04 49.50854 11.09022 1774 ft 92 kts 18°
2026-04-29 16:04 49.51253 11.08276 2040 ft 114 kts 284°
2026-04-29 16:04 49.51344 11.07065 2026 ft 113 kts 283°
2026-04-29 16:05 49.51502 11.05870 1986 ft 115 kts 288°
2026-04-29 16:05 49.51646 11.04634 1822 ft 122 kts 282°
2026-04-29 16:05 49.51472 11.03534 1799 ft 104 kts 204°
2026-04-29 16:05 49.50773 11.03190 1622 ft 105 kts 172°
2026-04-29 16:06 49.50288 11.03752 1435 ft 82 kts 98°
2026-04-29 16:06 49.50193 11.04579 1308 ft 78 kts 96°
2026-04-29 16:06 49.50109 11.05437 1193 ft 82 kts 92°
2026-04-29 16:06 49.50017 11.06288 1052 ft 73 kts 99°
2026-04-29 16:07 49.49953 11.06927 1014 ft 47 kts 100°
2026-04-29 16:07 49.49922 11.07285 1022 ft 62 kts 96°
2026-04-29 16:07 49.49819 11.08334 1167 ft 86 kts 104°